createdAt,value
2023-04-01T00:00:30.903Z,93973.00
2023-04-01T00:01:30.913Z,93971.00
2023-04-01T00:02:31.000Z,93967.00
2023-04-01T00:03:31.080Z,93965.00
2023-04-01T00:04:30.963Z,93971.00
2023-04-01T00:05:31.319Z,93969.00
2023-04-01T00:06:30.969Z,93967.00
2023-04-01T00:07:31.050Z,93969.00
2023-04-01T00:08:30.982Z,93967.00
2023-04-01T00:09:31.034Z,93971.00
2023-04-01T00:10:31.025Z,93969.00
2023-04-01T00:11:31.033Z,93971.00
2023-04-01T00:12:31.102Z,93969.00
2023-04-01T00:13:31.097Z,93971.00
2023-04-01T00:14:31.143Z,93973.00
2023-04-01T00:15:31.410Z,93971.00
2023-04-01T00:16:31.210Z,93973.00
2023-04-01T00:17:31.217Z,93973.00
2023-04-01T00:18:31.209Z,93973.00
2023-04-01T00:19:31.240Z,93973.00
2023-04-01T00:20:31.249Z,93973.00
2023-04-01T00:21:31.259Z,93973.00
2023-04-01T00:22:31.304Z,93971.00
2023-04-01T00:23:31.306Z,93969.00
2023-04-01T00:24:31.334Z,93969.00
2023-04-01T00:25:31.695Z,93967.00
2023-04-01T00:26:31.341Z,93963.00
2023-04-01T00:27:31.337Z,93965.00
2023-04-01T00:28:31.336Z,93969.00
2023-04-01T00:29:31.302Z,93965.00
2023-04-01T00:30:31.324Z,93961.00
2023-04-01T00:31:31.389Z,93959.00
2023-04-01T00:32:31.376Z,93957.00
2023-04-01T00:33:31.365Z,93957.00
2023-04-01T00:34:31.366Z,93963.00
2023-04-01T00:35:31.647Z,93967.00
2023-04-01T00:36:31.477Z,93971.00
2023-04-01T00:37:31.421Z,93967.00
2023-04-01T00:38:31.432Z,93967.00
2023-04-01T00:39:31.478Z,93967.00
2023-04-01T00:40:31.447Z,93969.00
2023-04-01T00:41:31.455Z,93969.00
2023-04-01T00:42:31.436Z,93963.00
2023-04-01T00:43:31.474Z,93963.00
2023-04-01T00:44:31.496Z,93963.00
2023-04-01T00:45:31.900Z,93961.00
2023-04-01T00:46:31.524Z,93961.00
2023-04-01T00:47:31.551Z,93961.00
2023-04-01T00:48:31.509Z,93961.00
2023-04-01T00:49:31.533Z,93963.00
2023-04-01T00:50:31.534Z,93965.00
2023-04-01T00:51:31.596Z,93965.00
2023-04-01T00:52:31.579Z,93963.00
2023-04-01T00:53:31.592Z,93959.00
2023-04-01T00:54:31.614Z,93955.00
2023-04-01T00:55:31.836Z,93957.00
2023-04-01T00:56:31.621Z,93963.00
2023-04-01T00:57:31.695Z,93961.00
2023-04-01T00:58:31.654Z,93959.00
2023-04-01T00:59:31.672Z,93957.00
2023-04-01T01:00:31.718Z,93955.00
2023-04-01T01:01:31.709Z,93953.00
2023-04-01T01:02:31.739Z,93957.00
2023-04-01T01:03:31.772Z,93959.00
2023-04-01T01:04:31.697Z,93957.00
2023-04-01T01:06:31.711Z,93955.00
2023-04-01T01:07:31.723Z,93953.00
2023-04-01T01:08:31.725Z,93949.00
2023-04-01T01:09:31.738Z,93949.00
2023-04-01T01:10:31.699Z,93949.00
2023-04-01T01:12:31.716Z,93955.00
2023-04-01T01:13:31.718Z,93955.00
2023-04-01T01:14:31.699Z,93949.00
2023-04-01T01:15:31.926Z,93951.00
2023-04-01T01:16:31.796Z,93946.00
2023-04-01T01:17:31.784Z,93946.00
2023-04-01T01:18:31.749Z,93944.00
2023-04-01T01:19:31.728Z,93944.00
2023-04-01T01:20:31.758Z,93940.00
2023-04-01T01:21:31.749Z,93940.00
2023-04-01T01:22:31.725Z,93940.00
2023-04-01T01:23:32.325Z,93942.00
2023-04-01T01:24:31.745Z,93946.00
2023-04-01T01:25:31.997Z,93946.00
2023-04-01T01:26:31.761Z,93944.00
2023-04-01T01:27:31.748Z,93944.00
2023-04-01T01:28:31.777Z,93944.00
2023-04-01T01:29:31.770Z,93944.00
2023-04-01T01:30:31.766Z,93946.00
2023-04-01T01:31:31.756Z,93946.00
2023-04-01T01:32:31.808Z,93948.00
2023-04-01T01:33:31.760Z,93946.00
2023-04-01T01:34:31.807Z,93944.00
2023-04-01T01:35:32.024Z,93944.00
2023-04-01T01:36:31.826Z,93949.00
2023-04-01T01:37:31.807Z,93948.00
2023-04-01T01:38:31.830Z,93946.00
2023-04-01T01:39:31.831Z,93944.00
2023-04-01T01:40:31.845Z,93940.00
2023-04-01T01:41:31.872Z,93940.00
2023-04-01T01:42:31.850Z,93936.00
2023-04-01T01:43:31.852Z,93934.00
2023-04-01T01:44:31.864Z,93938.00
2023-04-01T01:45:32.047Z,93932.00
2023-04-01T01:46:32.061Z,93928.00
2023-04-01T01:47:31.852Z,93928.00
2023-04-01T01:48:31.844Z,93928.00
2023-04-01T01:49:32.336Z,93928.00
2023-04-01T01:50:31.845Z,93928.00
2023-04-01T01:51:31.875Z,93928.00
2023-04-01T01:52:31.848Z,93928.00
2023-04-01T01:53:31.891Z,93932.00
2023-04-01T01:54:31.855Z,93930.00
2023-04-01T01:55:32.027Z,93930.00
2023-04-01T01:56:31.935Z,93928.00
2023-04-01T01:57:32.009Z,93926.00
2023-04-01T01:58:31.981Z,93928.00
2023-04-01T01:59:31.973Z,93928.00
2023-04-01T02:00:31.996Z,93924.00
2023-04-01T02:01:32.034Z,93924.00
2023-04-01T02:02:32.008Z,93924.00
2023-04-01T02:03:31.978Z,93924.00
2023-04-01T02:04:32.110Z,93926.00
2023-04-01T02:05:32.253Z,93926.00
2023-04-01T02:06:32.036Z,93924.00
2023-04-01T02:07:32.075Z,93922.00
2023-04-01T02:08:32.055Z,93922.00
2023-04-01T02:09:32.087Z,93920.00
2023-04-01T02:10:32.072Z,93918.00
2023-04-01T02:11:32.067Z,93912.00
2023-04-01T02:12:32.115Z,93914.00
2023-04-01T02:13:32.086Z,93912.00
2023-04-01T02:14:32.119Z,93918.00
2023-04-01T02:15:32.285Z,93918.00
2023-04-01T02:16:32.156Z,93920.00
2023-04-01T02:17:32.193Z,93918.00
2023-04-01T02:18:32.123Z,93922.00
2023-04-01T02:19:32.087Z,93922.00
2023-04-01T02:20:32.098Z,93926.00
2023-04-01T02:21:32.164Z,93928.00
2023-04-01T02:22:32.128Z,93932.00
2023-04-01T02:23:32.114Z,93934.00
2023-04-01T02:24:32.147Z,93936.00
2023-04-01T02:25:32.352Z,93938.00
2023-04-01T02:26:32.150Z,93940.00
2023-04-01T02:27:32.135Z,93944.00
2023-04-01T02:28:32.150Z,93942.00
2023-04-01T02:29:32.123Z,93942.00
2023-04-01T02:30:32.141Z,93942.00
2023-04-01T02:31:32.178Z,93944.00
2023-04-01T02:32:32.235Z,93946.00
2023-04-01T02:33:32.171Z,93944.00
2023-04-01T02:34:32.188Z,93942.00
2023-04-01T02:35:32.282Z,93944.00
2023-04-01T02:36:32.164Z,93944.00
2023-04-01T02:37:33.903Z,93942.00
2023-04-01T02:38:32.148Z,93942.00
2023-04-01T02:39:32.205Z,93942.00
2023-04-01T02:40:32.193Z,93942.00
2023-04-01T02:41:32.190Z,93944.00
2023-04-01T02:42:32.226Z,93942.00
2023-04-01T02:43:32.320Z,93942.00
2023-04-01T02:44:32.344Z,93940.00
2023-04-01T02:45:32.632Z,93942.00
2023-04-01T02:46:32.482Z,93942.00
2023-04-01T02:47:32.530Z,93942.00
2023-04-01T02:48:32.573Z,93946.00
2023-04-01T02:49:32.641Z,93949.00
2023-04-01T02:50:32.682Z,93949.00
2023-04-01T02:51:33.095Z,93951.00
2023-04-01T02:52:32.807Z,93949.00
2023-04-01T02:53:32.851Z,93951.00
2023-04-01T02:54:32.919Z,93951.00
2023-04-01T02:55:33.194Z,93953.00
2023-04-01T02:56:33.036Z,93951.00
2023-04-01T02:57:33.177Z,93953.00
2023-04-01T02:58:33.180Z,93955.00
2023-04-01T02:59:33.251Z,93957.00
2023-04-01T03:00:33.303Z,93959.00
2023-04-01T03:01:33.512Z,93965.00
2023-04-01T03:02:33.476Z,93965.00
2023-04-01T03:03:33.521Z,93963.00
2023-04-01T03:04:33.458Z,93963.00
2023-04-01T03:05:33.577Z,93965.00
2023-04-01T03:06:33.503Z,93967.00
2023-04-01T03:07:33.437Z,93973.00
2023-04-01T03:08:33.494Z,93975.00
2023-04-01T03:09:33.463Z,93979.00
2023-04-01T03:10:33.460Z,93979.00
2023-04-01T03:11:33.472Z,93979.00
2023-04-01T03:12:33.493Z,93981.00
2023-04-01T03:13:33.493Z,93981.00
2023-04-01T03:14:33.511Z,93981.00
2023-04-01T03:15:33.755Z,93985.00
2023-04-01T03:16:33.511Z,93987.00
2023-04-01T03:17:33.565Z,93989.00
2023-04-01T03:18:34.375Z,93989.00
2023-04-01T03:19:33.516Z,93993.00
2023-04-01T03:20:33.500Z,93995.00
2023-04-01T03:21:33.497Z,93998.00
2023-04-01T03:22:33.504Z,93998.00
2023-04-01T03:23:33.477Z,93998.00
2023-04-01T03:24:33.520Z,94002.00
2023-04-01T03:25:33.617Z,93996.00
2023-04-01T03:26:33.501Z,93998.00
2023-04-01T03:27:33.534Z,93995.00
2023-04-01T03:28:33.541Z,93993.00
2023-04-01T03:29:33.570Z,93993.00
2023-04-01T03:30:33.547Z,93995.00
2023-04-01T03:31:33.641Z,93996.00
2023-04-01T03:32:33.583Z,93995.00
2023-04-01T03:33:33.552Z,93995.00
2023-04-01T03:34:33.552Z,93993.00
2023-04-01T03:35:33.731Z,93995.00
2023-04-01T03:36:33.550Z,93996.00
2023-04-01T03:37:33.532Z,94000.00
2023-04-01T03:38:33.534Z,94000.00
2023-04-01T03:39:33.565Z,94000.00
2023-04-01T03:40:33.549Z,94000.00
2023-04-01T03:41:33.565Z,94002.00
2023-04-01T03:42:33.616Z,94002.00
2023-04-01T03:43:33.575Z,94002.00
2023-04-01T03:44:33.587Z,94000.00
2023-04-01T03:45:33.851Z,93996.00
2023-04-01T03:46:33.607Z,93995.00
2023-04-01T03:47:33.624Z,93995.00
2023-04-01T03:48:33.574Z,93995.00
2023-04-01T03:49:33.624Z,93996.00
2023-04-01T03:50:33.598Z,93998.00
2023-04-01T03:51:33.569Z,94000.00
2023-04-01T03:52:33.592Z,93998.00
2023-04-01T03:53:33.618Z,93996.00
2023-04-01T03:54:33.611Z,93998.00
2023-04-01T03:55:33.910Z,93996.00
2023-04-01T03:56:33.600Z,94000.00
2023-04-01T03:57:33.657Z,93998.00
2023-04-01T03:58:34.408Z,93998.00
2023-04-01T03:59:33.661Z,93998.00
2023-04-01T04:00:33.657Z,93995.00
2023-04-01T04:01:33.654Z,93995.00
2023-04-01T04:02:33.723Z,93995.00
2023-04-01T04:03:33.753Z,93993.00
2023-04-01T04:04:33.749Z,93995.00
2023-04-01T04:05:33.914Z,93996.00
2023-04-01T04:06:33.707Z,94000.00
2023-04-01T04:07:33.664Z,94002.00
2023-04-01T04:08:33.685Z,94004.00
2023-04-01T04:09:33.690Z,94006.00
2023-04-01T04:10:33.733Z,94006.00
2023-04-01T04:11:33.702Z,94004.00
2023-04-01T04:12:33.708Z,94006.00
2023-04-01T04:13:33.745Z,94004.00
2023-04-01T04:14:33.758Z,94008.00
2023-04-01T04:15:33.979Z,94010.00
2023-04-01T04:16:33.754Z,94008.00
2023-04-01T04:17:33.761Z,94008.00
2023-04-01T04:18:33.728Z,94010.00
2023-04-01T04:19:33.750Z,94010.00
2023-04-01T04:20:33.748Z,94012.00
2023-04-01T04:21:33.759Z,94016.00
2023-04-01T04:22:33.762Z,94018.00
2023-04-01T04:23:33.746Z,94020.00
2023-04-01T04:24:33.756Z,94020.00
2023-04-01T04:25:34.003Z,94022.00
2023-04-01T04:26:33.761Z,94024.00
2023-04-01T04:27:33.754Z,94026.00
2023-04-01T04:28:33.755Z,94028.00
2023-04-01T04:29:33.752Z,94026.00
2023-04-01T04:30:33.754Z,94026.00
2023-04-01T04:31:33.916Z,94030.00
2023-04-01T04:32:33.856Z,94032.00
2023-04-01T04:33:33.782Z,94036.00
2023-04-01T04:34:33.784Z,94036.00
2023-04-01T04:35:33.939Z,94034.00
2023-04-01T04:36:33.776Z,94038.00
2023-04-01T04:37:33.813Z,94038.00
2023-04-01T04:38:33.817Z,94038.00
2023-04-01T04:39:33.823Z,94036.00
2023-04-01T04:40:33.800Z,94032.00
2023-04-01T04:41:35.913Z,94032.00
2023-04-01T04:42:33.800Z,94034.00
2023-04-01T04:43:33.786Z,94034.00
2023-04-01T04:44:33.794Z,94032.00
2023-04-01T04:45:33.986Z,94030.00
2023-04-01T04:46:33.762Z,94034.00
2023-04-01T04:47:33.810Z,94034.00
2023-04-01T04:48:33.760Z,94040.00
2023-04-01T04:49:33.729Z,94042.00
2023-04-01T04:50:33.725Z,94043.00
2023-04-01T04:51:33.721Z,94042.00
2023-04-01T04:52:33.732Z,94042.00
2023-04-01T04:53:33.711Z,94042.00
2023-04-01T04:54:33.693Z,94040.00
2023-04-01T04:55:33.875Z,94040.00
2023-04-01T04:56:33.717Z,94040.00
2023-04-01T04:57:33.829Z,94042.00
2023-04-01T04:58:33.689Z,94040.00
2023-04-01T04:59:33.668Z,94042.00
2023-04-01T05:00:33.660Z,94042.00
2023-04-01T05:01:33.698Z,94042.00
2023-04-01T05:02:33.712Z,94038.00
2023-04-01T05:03:33.870Z,94040.00
2023-04-01T05:04:33.646Z,94043.00
2023-04-01T05:05:33.823Z,94043.00
2023-04-01T05:06:33.617Z,94047.00
2023-04-01T05:07:33.612Z,94049.00
2023-04-01T05:08:34.437Z,94051.00
2023-04-01T05:09:33.614Z,94051.00
2023-04-01T05:10:33.600Z,94055.00
2023-04-01T05:11:33.552Z,94057.00
2023-04-01T05:12:33.589Z,94059.00
2023-04-01T05:13:33.581Z,94059.00
2023-04-01T05:14:33.557Z,94057.00
2023-04-01T05:15:33.759Z,94057.00
2023-04-01T05:16:33.582Z,94061.00
2023-04-01T05:17:33.567Z,94061.00
2023-04-01T05:18:33.552Z,94059.00
2023-04-01T05:19:33.534Z,94057.00
2023-04-01T05:20:33.533Z,94055.00
2023-04-01T05:21:33.499Z,94055.00
2023-04-01T05:22:33.511Z,94057.00
2023-04-01T05:23:33.491Z,94059.00
2023-04-01T05:24:33.514Z,94059.00
2023-04-01T05:25:33.596Z,94059.00
2023-04-01T05:26:33.467Z,94055.00
2023-04-01T05:27:33.452Z,94057.00
2023-04-01T05:28:33.473Z,94057.00
2023-04-01T05:29:33.463Z,94061.00
2023-04-01T05:30:33.464Z,94065.00
2023-04-01T05:31:33.449Z,94063.00
2023-04-01T05:32:33.456Z,94065.00
2023-04-01T05:33:33.450Z,94061.00
2023-04-01T05:34:33.426Z,94065.00
2023-04-01T05:35:33.858Z,94061.00
2023-04-01T05:36:33.406Z,94061.00
2023-04-01T05:37:33.396Z,94061.00
2023-04-01T05:38:33.418Z,94061.00
2023-04-01T05:39:33.415Z,94061.00
2023-04-01T05:40:33.373Z,94063.00
2023-04-01T05:41:33.370Z,94059.00
2023-04-01T05:42:33.725Z,94059.00
2023-04-01T05:43:33.346Z,94055.00
2023-04-01T05:44:33.351Z,94057.00
2023-04-01T05:45:33.500Z,94055.00
2023-04-01T05:46:33.393Z,94059.00
2023-04-01T05:47:33.395Z,94059.00
2023-04-01T05:48:33.314Z,94057.00
2023-04-01T05:49:33.326Z,94057.00
2023-04-01T05:50:33.325Z,94057.00
2023-04-01T05:51:33.298Z,94057.00
2023-04-01T05:52:33.291Z,94059.00
2023-04-01T05:53:33.300Z,94063.00
2023-04-01T05:54:33.269Z,94063.00
2023-04-01T05:55:33.457Z,94069.00
2023-04-01T05:56:33.244Z,94061.00
2023-04-01T05:57:33.313Z,94065.00
2023-04-01T05:58:33.271Z,94063.00
2023-04-01T05:59:33.238Z,94069.00
2023-04-01T06:00:33.240Z,94073.00
2023-04-01T06:01:33.247Z,94073.00
2023-04-01T06:02:33.290Z,94071.00
2023-04-01T06:03:33.300Z,94069.00
2023-04-01T06:04:33.251Z,94065.00
2023-04-01T06:05:33.395Z,94065.00
2023-04-01T06:06:33.177Z,94065.00
2023-04-01T06:07:33.171Z,94065.00
2023-04-01T06:08:33.175Z,94069.00
2023-04-01T06:09:33.159Z,94071.00
2023-04-01T06:10:33.146Z,94075.00
2023-04-01T06:11:33.149Z,94077.00
2023-04-01T06:12:33.150Z,94077.00
2023-04-01T06:13:33.213Z,94079.00
2023-04-01T06:14:33.131Z,94081.00
2023-04-01T06:15:33.335Z,94079.00
2023-04-01T06:16:33.188Z,94081.00
2023-04-01T06:17:33.120Z,94079.00
2023-04-01T06:18:33.112Z,94081.00
2023-04-01T06:19:33.088Z,94083.00
2023-04-01T06:20:33.097Z,94083.00
2023-04-01T06:21:33.113Z,94083.00
2023-04-01T06:22:33.135Z,94081.00
2023-04-01T06:23:33.215Z,94081.00
2023-04-01T06:24:33.289Z,94085.00
2023-04-01T06:25:33.449Z,94087.00
2023-04-01T06:26:33.364Z,94089.00
2023-04-01T06:27:33.434Z,94089.00
2023-04-01T06:28:33.465Z,94091.00
2023-04-01T06:29:33.552Z,94089.00
2023-04-01T06:30:33.580Z,94087.00
2023-04-01T06:31:33.709Z,94089.00
2023-04-01T06:32:33.831Z,94093.00
2023-04-01T06:33:33.775Z,94093.00
2023-04-01T06:34:33.764Z,94091.00
2023-04-01T06:35:34.062Z,94089.00
2023-04-01T06:36:33.785Z,94087.00
2023-04-01T06:37:33.745Z,94087.00
2023-04-01T06:38:33.749Z,94083.00
2023-04-01T06:39:33.778Z,94081.00
2023-04-01T06:40:33.797Z,94077.00
2023-04-01T06:41:33.758Z,94075.00
2023-04-01T06:42:33.774Z,94071.00
2023-04-01T06:43:33.788Z,94065.00
2023-04-01T06:44:33.776Z,94063.00
2023-04-01T06:45:33.971Z,94061.00
2023-04-01T06:46:33.781Z,94059.00
2023-04-01T06:47:33.822Z,94061.00
2023-04-01T06:48:33.825Z,94057.00
2023-04-01T06:49:33.827Z,94059.00
2023-04-01T06:50:33.811Z,94061.00
2023-04-01T06:51:33.799Z,94061.00
2023-04-01T06:52:33.787Z,94059.00
2023-04-01T06:53:33.786Z,94061.00
2023-04-01T06:54:33.819Z,94057.00
2023-04-01T06:55:33.982Z,94055.00
2023-04-01T06:56:33.807Z,94053.00
2023-04-01T06:57:33.882Z,94057.00
2023-04-01T06:58:33.923Z,94057.00
2023-04-01T06:59:33.945Z,94061.00
2023-04-01T07:00:34.013Z,94063.00
2023-04-01T07:01:34.120Z,94063.00
2023-04-01T07:02:34.109Z,94061.00
2023-04-01T07:03:34.156Z,94057.00
2023-04-01T07:04:34.167Z,94059.00
2023-04-01T07:05:34.424Z,94061.00
2023-04-01T07:06:34.202Z,94063.00
2023-04-01T07:07:34.249Z,94063.00
2023-04-01T07:08:34.309Z,94061.00
2023-04-01T07:09:34.387Z,94063.00
2023-04-01T07:10:34.413Z,94063.00
2023-04-01T07:11:34.496Z,94065.00
2023-04-01T07:12:34.520Z,94063.00
2023-04-01T07:13:34.577Z,94063.00
2023-04-01T07:14:34.670Z,94061.00
2023-04-01T07:15:34.996Z,94065.00
2023-04-01T07:16:34.778Z,94065.00
2023-04-01T07:17:34.874Z,94063.00
2023-04-01T07:18:34.905Z,94063.00
2023-04-01T07:19:34.866Z,94065.00
2023-04-01T07:20:35.526Z,94061.00
2023-04-01T07:21:34.901Z,94059.00
2023-04-01T07:22:34.875Z,94059.00
2023-04-01T07:23:34.861Z,94057.00
2023-04-01T07:24:34.877Z,94061.00
2023-04-01T07:25:35.162Z,94061.00
2023-04-01T07:26:34.866Z,94061.00
2023-04-01T07:27:34.855Z,94059.00
2023-04-01T07:28:34.884Z,94061.00
2023-04-01T07:29:34.833Z,94057.00
2023-04-01T07:30:34.840Z,94063.00
2023-04-01T07:31:34.871Z,94061.00
2023-04-01T07:32:36.206Z,94061.00
2023-04-01T07:33:34.809Z,94063.00
2023-04-01T07:34:34.773Z,94059.00
2023-04-01T07:35:35.142Z,94061.00
2023-04-01T07:36:34.781Z,94063.00
2023-04-01T07:37:34.784Z,94065.00
2023-04-01T07:38:34.810Z,94069.00
2023-04-01T07:39:34.767Z,94075.00
2023-04-01T07:40:34.740Z,94075.00
2023-04-01T07:41:34.768Z,94077.00
2023-04-01T07:42:34.704Z,94071.00
2023-04-01T07:43:34.729Z,94073.00
2023-04-01T07:44:34.721Z,94081.00
2023-04-01T07:45:35.053Z,94073.00
2023-04-01T07:46:34.730Z,94075.00
2023-04-01T07:47:34.780Z,94075.00
2023-04-01T07:48:34.846Z,94075.00
2023-04-01T07:49:34.887Z,94077.00
2023-04-01T07:50:34.929Z,94075.00
2023-04-01T07:51:34.962Z,94077.00
2023-04-01T07:52:35.023Z,94073.00
2023-04-01T07:53:35.099Z,94077.00
2023-04-01T07:54:35.145Z,94077.00
2023-04-01T07:55:35.416Z,94077.00
2023-04-01T07:56:35.228Z,94077.00
2023-04-01T07:57:35.277Z,94079.00
2023-04-01T07:58:35.321Z,94079.00
2023-04-01T07:59:35.402Z,94079.00
2023-04-01T08:00:35.478Z,94077.00
2023-04-01T08:01:35.480Z,94081.00
2023-04-01T08:02:35.608Z,94079.00
2023-04-01T08:03:35.697Z,94077.00
2023-04-01T08:04:35.704Z,94073.00
2023-04-01T08:05:35.884Z,94071.00
2023-04-01T08:06:35.724Z,94073.00
2023-04-01T08:07:35.767Z,94075.00
2023-04-01T08:08:35.800Z,94071.00
2023-04-01T08:09:35.878Z,94075.00
2023-04-01T08:10:35.910Z,94073.00
2023-04-01T08:11:35.931Z,94067.00
2023-04-01T08:12:35.985Z,94069.00
2023-04-01T08:13:36.043Z,94063.00
2023-04-01T08:14:36.104Z,94063.00
2023-04-01T08:15:36.132Z,94061.00
2023-04-01T08:16:36.211Z,94065.00
2023-04-01T08:17:36.157Z,94063.00
2023-04-01T08:18:36.193Z,94063.00
2023-04-01T08:19:36.250Z,94065.00
2023-04-01T08:20:36.231Z,94063.00
2023-04-01T08:21:36.305Z,94061.00
2023-04-01T08:22:36.318Z,94057.00
2023-04-01T08:23:36.335Z,94059.00
2023-04-01T08:24:46.612Z,94061.00
2023-04-01T08:25:37.334Z,94059.00
2023-04-01T08:26:36.339Z,94059.00
2023-04-01T08:27:36.318Z,94053.00
2023-04-01T08:28:36.305Z,94049.00
2023-04-01T08:29:36.337Z,94047.00
2023-04-01T08:30:36.340Z,94045.00
2023-04-01T08:31:36.324Z,94043.00
2023-04-01T08:32:36.340Z,94045.00
2023-04-01T08:33:36.280Z,94045.00
2023-04-01T08:34:36.297Z,94045.00
2023-04-01T08:35:38.353Z,94043.00
2023-04-01T08:36:36.262Z,94045.00
2023-04-01T08:37:36.244Z,94043.00
2023-04-01T08:38:36.240Z,94042.00
2023-04-01T08:39:36.238Z,94040.00
2023-04-01T08:40:36.235Z,94038.00
2023-04-01T08:41:36.221Z,94038.00
2023-04-01T08:42:36.217Z,94040.00
2023-04-01T08:43:36.220Z,94036.00
2023-04-01T08:44:36.215Z,94036.00
2023-04-01T08:45:36.504Z,94036.00
2023-04-01T08:46:36.187Z,94032.00
2023-04-01T08:47:36.210Z,94036.00
2023-04-01T08:48:36.176Z,94038.00
2023-04-01T08:49:36.178Z,94038.00
2023-04-01T08:50:36.215Z,94038.00
2023-04-01T08:51:36.175Z,94038.00
2023-04-01T08:52:36.188Z,94034.00
2023-04-01T08:53:36.180Z,94038.00
2023-04-01T08:54:36.224Z,94038.00
2023-04-01T08:55:36.212Z,94040.00
2023-04-01T08:56:36.222Z,94038.00
2023-04-01T08:57:36.254Z,94036.00
2023-04-01T08:58:36.231Z,94032.00
2023-04-01T08:59:36.271Z,94034.00
2023-04-01T09:00:36.242Z,94032.00
2023-04-01T09:01:36.253Z,94038.00
2023-04-01T09:02:36.318Z,94034.00
2023-04-01T09:03:36.332Z,94036.00
2023-04-01T09:04:36.428Z,94036.00
2023-04-01T09:05:36.300Z,94034.00
2023-04-01T09:06:36.314Z,94034.00
2023-04-01T09:07:36.359Z,94032.00
2023-04-01T09:08:36.410Z,94030.00
2023-04-01T09:09:36.469Z,94028.00
2023-04-01T09:10:36.487Z,94028.00
2023-04-01T09:11:36.562Z,94022.00
2023-04-01T09:12:36.593Z,94024.00
2023-04-01T09:13:36.623Z,94022.00
2023-04-01T09:14:36.660Z,94022.00
2023-04-01T09:15:37.019Z,94020.00
2023-04-01T09:16:36.986Z,94016.00
2023-04-01T09:17:36.746Z,94014.00
2023-04-01T09:18:36.740Z,94012.00
2023-04-01T09:19:36.795Z,94012.00
2023-04-01T09:20:36.781Z,94012.00
2023-04-01T09:21:36.789Z,94012.00
2023-04-01T09:22:36.808Z,94006.00
2023-04-01T09:23:36.823Z,94004.00
2023-04-01T09:24:36.867Z,94004.00
2023-04-01T09:25:36.853Z,94002.00
2023-04-01T09:26:36.909Z,94000.00
2023-04-01T09:27:36.903Z,94002.00
2023-04-01T09:28:36.950Z,94002.00
2023-04-01T09:29:36.937Z,94000.00
2023-04-01T09:30:37.014Z,93996.00
2023-04-01T09:31:37.086Z,93996.00
2023-04-01T09:32:37.131Z,93998.00
2023-04-01T09:33:37.094Z,93995.00
2023-04-01T09:34:37.102Z,94000.00
2023-04-01T09:35:37.226Z,93996.00
2023-04-01T09:36:37.132Z,93991.00
2023-04-01T09:37:37.130Z,93989.00
2023-04-01T09:38:37.158Z,93987.00
2023-04-01T09:39:37.221Z,93987.00
2023-04-01T09:40:37.316Z,93985.00
2023-04-01T09:41:37.336Z,93989.00
2023-04-01T09:42:37.341Z,93987.00
2023-04-01T09:43:37.407Z,93987.00
2023-04-01T09:44:37.452Z,93979.00
2023-04-01T09:45:37.458Z,93981.00
2023-04-01T09:46:37.540Z,93979.00
2023-04-01T09:47:37.564Z,93975.00
2023-04-01T09:48:37.605Z,93977.00
2023-04-01T09:49:37.675Z,93971.00
2023-04-01T09:50:37.792Z,93973.00
2023-04-01T09:51:37.755Z,93973.00
2023-04-01T09:52:37.789Z,93973.00
2023-04-01T09:53:37.844Z,93973.00
2023-04-01T09:54:37.901Z,93969.00
2023-04-01T09:55:37.961Z,93969.00
2023-04-01T09:56:37.977Z,93963.00
2023-04-01T09:57:38.029Z,93959.00
2023-04-01T09:58:43.984Z,93959.00
2023-04-01T09:59:39.035Z,93959.00
2023-04-01T10:00:38.050Z,93955.00
2023-04-01T10:01:38.060Z,93961.00
2023-04-01T10:02:38.044Z,93955.00
2023-04-01T10:03:38.021Z,93951.00
2023-04-01T10:04:37.972Z,93949.00
2023-04-01T10:05:38.030Z,93946.00
2023-04-01T10:06:38.014Z,93946.00
2023-04-01T10:07:37.948Z,93948.00
2023-04-01T10:08:37.974Z,93949.00
2023-04-01T10:09:37.969Z,93946.00
2023-04-01T10:10:37.979Z,93942.00
2023-04-01T10:11:37.954Z,93942.00
2023-04-01T10:12:37.981Z,93942.00
2023-04-01T10:13:38.020Z,93942.00
2023-04-01T10:14:38.038Z,93942.00
2023-04-01T10:15:38.063Z,93940.00
2023-04-01T10:16:38.153Z,93938.00
2023-04-01T10:17:38.122Z,93944.00
2023-04-01T10:18:38.166Z,93936.00
2023-04-01T10:19:38.195Z,93938.00
2023-04-01T10:20:38.242Z,93932.00
2023-04-01T10:21:38.228Z,93932.00
2023-04-01T10:22:38.262Z,93930.00
2023-04-01T10:23:38.252Z,93924.00
2023-04-01T10:24:38.297Z,93922.00
2023-04-01T10:25:38.268Z,93924.00
2023-04-01T10:26:38.285Z,93922.00
2023-04-01T10:27:38.301Z,93922.00
2023-04-01T10:28:38.270Z,93926.00
2023-04-01T10:29:38.301Z,93928.00
2023-04-01T10:30:38.319Z,93928.00
2023-04-01T10:31:38.378Z,93924.00
2023-04-01T10:32:38.340Z,93922.00
2023-04-01T10:33:38.298Z,93916.00
2023-04-01T10:34:38.345Z,93918.00
2023-04-01T10:35:38.289Z,93916.00
2023-04-01T10:36:38.314Z,93916.00
2023-04-01T10:37:38.343Z,93916.00
2023-04-01T10:38:38.358Z,93920.00
2023-04-01T10:39:38.331Z,93912.00
2023-04-01T10:40:38.332Z,93916.00
2023-04-01T10:41:38.357Z,93912.00
2023-04-01T10:42:38.344Z,93910.00
2023-04-01T10:43:38.356Z,93908.00
2023-04-01T10:44:38.370Z,93910.00
2023-04-01T10:45:38.391Z,93908.00
2023-04-01T10:46:38.426Z,93904.00
2023-04-01T10:47:38.421Z,93901.00
2023-04-01T10:48:38.366Z,93902.00
2023-04-01T10:49:38.385Z,93902.00
2023-04-01T10:50:38.374Z,93904.00
2023-04-01T10:51:38.398Z,93906.00
2023-04-01T10:52:38.405Z,93904.00
2023-04-01T10:53:38.429Z,93899.00
2023-04-01T10:54:38.422Z,93902.00
2023-04-01T10:55:38.458Z,93901.00
2023-04-01T10:56:38.460Z,93899.00
2023-04-01T10:57:38.448Z,93895.00
2023-04-01T10:58:38.463Z,93897.00
2023-04-01T10:59:38.486Z,93897.00
2023-04-01T11:00:38.475Z,93895.00
2023-04-01T11:01:38.520Z,93895.00
2023-04-01T11:02:38.632Z,93889.00
2023-04-01T11:03:38.697Z,93887.00
2023-04-01T11:04:38.559Z,93887.00
2023-04-01T11:05:38.599Z,93887.00
2023-04-01T11:06:38.608Z,93887.00
2023-04-01T11:07:38.653Z,93887.00
2023-04-01T11:08:38.644Z,93885.00
2023-04-01T11:09:38.703Z,93877.00
2023-04-01T11:10:38.735Z,93879.00
2023-04-01T11:11:38.748Z,93877.00
2023-04-01T11:12:38.772Z,93871.00
2023-04-01T11:13:38.863Z,93871.00
2023-04-01T11:14:38.926Z,93869.00
2023-04-01T11:15:38.931Z,93867.00
2023-04-01T11:16:39.049Z,93871.00
2023-04-01T11:17:39.085Z,93867.00
2023-04-01T11:18:39.100Z,93865.00
2023-04-01T11:19:39.158Z,93869.00
2023-04-01T11:20:39.209Z,93863.00
2023-04-01T11:21:39.276Z,93863.00
2023-04-01T11:22:39.331Z,93856.00
2023-04-01T11:23:39.413Z,93863.00
2023-04-01T11:24:39.450Z,93856.00
2023-04-01T11:25:39.517Z,93856.00
2023-04-01T11:26:39.657Z,93863.00
2023-04-01T11:27:40.003Z,93865.00
2023-04-01T11:28:39.645Z,93863.00
2023-04-01T11:29:42.236Z,93854.00
2023-04-01T11:30:40.738Z,93854.00
2023-04-01T11:31:39.851Z,93848.00
2023-04-01T11:32:39.746Z,93852.00
2023-04-01T11:33:39.723Z,93865.00
2023-04-01T11:34:39.669Z,93854.00
2023-04-01T11:35:39.718Z,93854.00
2023-04-01T11:36:39.744Z,93852.00
2023-04-01T11:37:39.670Z,93863.00
2023-04-01T11:38:39.715Z,93863.00
2023-04-01T11:39:39.737Z,93850.00
2023-04-01T11:40:39.832Z,93846.00
2023-04-01T11:41:39.860Z,93846.00
2023-04-01T11:42:39.933Z,93852.00
2023-04-01T11:43:39.971Z,93848.00
2023-04-01T11:44:40.035Z,93846.00
2023-04-01T11:45:40.098Z,93844.00
2023-04-01T11:46:40.272Z,93846.00